Time,TemperatureF,DewpointF,PressureIn,WindDirection,WindDirectionDegrees,WindSpeedMPH,WindSpeedGustMPH,Humidity,HourlyPrecipIn,Conditions,Clouds,dailyrainin,SolarRadiationWatts/m^2,SoftwareType,DateUTC
2013-06-29 00:01:00,71.0,70.0,-100.00,South,188,1.0,6.0,98,0.00,,,0.20,0.000000,,2013-06-29 04:01:00,
2013-06-29 00:25:00,70.0,70.0,-100.00,WNW,297,2.0,5.0,99,0.00,,,0.20,0.000000,,2013-06-29 04:25:00,
2013-06-29 00:32:00,70.0,70.0,-100.00,WNW,297,2.0,5.0,99,0.00,,,0.20,0.000000,,2013-06-29 04:32:00,
2013-06-29 00:41:00,70.0,70.0,-100.00,WNW,297,2.0,5.0,99,0.00,,,0.20,0.000000,,2013-06-29 04:41:00,
2013-06-29 00:51:00,70.0,70.0,-100.00,WNW,297,2.0,5.0,99,0.00,,,0.20,0.000000,,2013-06-29 04:51:00,
2013-06-29 01:01:00,70.0,70.0,-100.00,WNW,297,2.0,5.0,99,0.00,,,0.20,0.000000,,2013-06-29 05:01:00,
2013-06-29 01:21:00,70.0,70.0,-100.00,WNW,291,2.0,4.0,99,0.00,,,0.20,0.000000,,2013-06-29 05:21:00,
2013-06-29 01:31:00,70.0,70.0,-100.00,WNW,291,2.0,4.0,99,0.00,,,0.20,0.000000,,2013-06-29 05:31:00,
2013-06-29 01:42:00,70.0,70.0,-100.00,WNW,291,2.0,4.0,99,0.00,,,0.20,0.000000,,2013-06-29 05:42:00,
2013-06-29 01:52:00,70.0,70.0,-100.00,WNW,291,2.0,4.0,99,0.00,,,0.20,0.000000,,2013-06-29 05:52:00,
2013-06-29 02:01:00,70.0,70.0,-100.00,WNW,291,2.0,4.0,99,0.00,,,0.20,0.000000,,2013-06-29 06:01:00,
2013-06-29 02:34:00,69.0,69.0,-100.00,East,93,1.0,4.0,100,0.00,,,-99.99,0.000000,,2013-06-29 06:34:00,
2013-06-29 02:43:00,69.0,69.0,-100.00,East,93,1.0,4.0,100,0.00,,,-99.99,0.000000,,2013-06-29 06:43:00,
2013-06-29 02:53:00,69.0,69.0,-100.00,East,93,1.0,4.0,100,0.00,,,-99.99,0.000000,,2013-06-29 06:53:00,
2013-06-29 03:02:00,69.0,69.0,-100.00,East,93,1.0,4.0,100,0.00,,,-99.99,0.000000,,2013-06-29 07:02:00,
2013-06-29 03:33:00,68.0,68.0,-100.00,SW,214,1.0,4.0,100,0.00,,,0.20,0.000000,,2013-06-29 07:33:00,
2013-06-29 03:43:00,68.0,68.0,-100.00,SW,214,1.0,4.0,100,0.00,,,0.20,0.000000,,2013-06-29 07:43:00,
2013-06-29 03:53:00,68.0,68.0,-100.00,SW,214,1.0,4.0,100,0.00,,,0.20,0.000000,,2013-06-29 07:53:00,
2013-06-29 04:01:00,68.0,68.0,-100.00,SW,214,1.0,4.0,100,0.00,,,0.20,0.000000,,2013-06-29 08:01:00,
2013-06-29 04:33:00,68.0,68.0,-100.00,SSW,205,2.0,3.0,100,0.00,,,0.20,0.000000,,2013-06-29 08:33:00,
2013-06-29 04:43:00,68.0,68.0,-100.00,SSW,205,2.0,3.0,100,0.00,,,0.20,0.000000,,2013-06-29 08:43:00,
2013-06-29 04:52:00,68.0,68.0,-100.00,SSW,205,2.0,3.0,100,0.00,,,0.20,0.000000,,2013-06-29 08:52:00,
2013-06-29 05:02:00,68.0,68.0,-100.00,SSW,205,2.0,3.0,100,0.00,,,0.20,0.000000,,2013-06-29 09:02:00,
2013-06-29 05:33:00,68.0,68.0,-100.00,SSE,167,1.0,3.0,100,0.00,,,0.20,0.000000,,2013-06-29 09:33:00,
2013-06-29 05:42:00,68.0,68.0,-100.00,SSE,167,1.0,3.0,100,0.00,,,0.20,0.000000,,2013-06-29 09:42:00,
2013-06-29 05:53:00,68.0,68.0,-100.00,SSE,167,1.0,3.0,100,0.00,,,0.20,0.000000,,2013-06-29 09:53:00,
2013-06-29 06:01:00,68.0,68.0,-100.00,SSE,167,1.0,3.0,100,0.00,,,0.20,0.000000,,2013-06-29 10:01:00,
2013-06-29 06:33:00,66.0,66.0,-100.00,NNW,337,2.0,3.0,100,0.00,,,0.20,0.000000,,2013-06-29 10:33:00,
2013-06-29 06:43:00,66.0,66.0,-100.00,NNW,337,2.0,3.0,100,0.00,,,0.20,0.000000,,2013-06-29 10:43:00,
2013-06-29 06:53:00,66.0,66.0,-100.00,NNW,337,2.0,3.0,100,0.00,,,0.20,0.000000,,2013-06-29 10:53:00,
2013-06-29 07:02:00,66.0,66.0,-100.00,NNW,337,2.0,3.0,100,0.00,,,0.20,0.000000,,2013-06-29 11:02:00,
2013-06-29 07:33:00,66.0,66.0,-100.00,NNE,17,0.0,4.0,100,0.00,,,0.20,16.000000,,2013-06-29 11:33:00,
2013-06-29 07:43:00,66.0,66.0,-100.00,NNE,17,0.0,4.0,100,0.00,,,0.20,16.000000,,2013-06-29 11:43:00,
2013-06-29 07:53:00,66.0,66.0,-100.00,NNE,17,0.0,4.0,100,0.00,,,0.20,16.000000,,2013-06-29 11:53:00,
2013-06-29 08:02:00,66.0,66.0,-100.00,NNE,17,0.0,4.0,100,0.00,,,0.20,16.000000,,2013-06-29 12:02:00,
2013-06-29 08:34:00,69.0,69.0,-100.00,SW,227,2.0,2.0,100,0.00,,,0.20,64.000000,,2013-06-29 12:34:00,
2013-06-29 08:43:00,69.0,69.0,-100.00,SW,227,2.0,2.0,100,0.00,,,0.20,64.000000,,2013-06-29 12:43:00,
2013-06-29 08:53:00,69.0,69.0,-100.00,SW,227,2.0,2.0,100,0.00,,,0.20,64.000000,,2013-06-29 12:53:00,
2013-06-29 09:02:00,69.0,69.0,-100.00,SW,227,2.0,2.0,100,0.00,,,0.20,64.000000,,2013-06-29 13:02:00,
2013-06-29 09:23:00,72.0,69.0,-100.00,SW,215,2.0,4.0,89,0.00,,,0.20,142.000000,,2013-06-29 13:23:00,
2013-06-29 09:34:00,72.0,69.0,-100.00,SW,215,2.0,4.0,89,0.00,,,0.20,142.000000,,2013-06-29 13:34:00,
2013-06-29 09:43:00,72.0,69.0,-100.00,SW,215,2.0,4.0,89,0.00,,,0.20,142.000000,,2013-06-29 13:43:00,
2013-06-29 09:53:00,72.0,69.0,-100.00,SW,215,2.0,4.0,89,0.00,,,0.20,142.000000,,2013-06-29 13:53:00,
2013-06-29 10:02:00,72.0,69.0,-100.00,SW,215,2.0,4.0,89,0.00,,,0.20,142.000000,,2013-06-29 14:02:00,
2013-06-29 10:34:00,74.0,70.0,-100.00,WSW,253,2.0,6.0,86,0.00,,,0.20,324.000000,,2013-06-29 14:34:00,
2013-06-29 10:45:00,74.0,70.0,-100.00,WSW,253,2.0,6.0,86,0.00,,,0.20,324.000000,,2013-06-29 14:45:00,
2013-06-29 10:53:00,74.0,70.0,-100.00,WSW,253,2.0,6.0,86,0.00,,,0.20,324.000000,,2013-06-29 14:53:00,
2013-06-29 11:02:00,74.0,70.0,-100.00,WSW,253,2.0,6.0,86,0.00,,,0.20,324.000000,,2013-06-29 15:02:00,
2013-06-29 11:33:00,80.0,68.0,-100.00,SW,214,5.0,8.0,68,0.00,,,0.20,800.000000,,2013-06-29 15:33:00,
2013-06-29 11:42:00,80.0,68.0,-100.00,SW,214,5.0,8.0,68,0.00,,,0.20,800.000000,,2013-06-29 15:42:00,
2013-06-29 11:53:00,80.0,68.0,-100.00,SW,214,5.0,8.0,68,0.00,,,0.20,800.000000,,2013-06-29 15:53:00,
2013-06-29 12:02:00,80.0,68.0,-100.00,SW,214,5.0,8.0,68,0.00,,,0.20,800.000000,,2013-06-29 16:02:00,
2013-06-29 12:23:00,81.0,66.0,-100.00,WSW,243,4.0,9.0,60,0.00,,,0.20,729.000000,,2013-06-29 16:23:00,
2013-06-29 12:34:00,81.0,66.0,-100.00,WSW,243,4.0,9.0,60,0.00,,,0.20,729.000000,,2013-06-29 16:34:00,
2013-06-29 12:43:00,81.0,66.0,-100.00,WSW,243,4.0,9.0,60,0.00,,,0.20,729.000000,,2013-06-29 16:43:00,
2013-06-29 12:53:00,81.0,66.0,-100.00,WSW,243,4.0,9.0,60,0.00,,,0.20,729.000000,,2013-06-29 16:53:00,
2013-06-29 13:01:00,81.0,66.0,-100.00,WSW,243,4.0,9.0,60,0.00,,,0.20,729.000000,,2013-06-29 17:01:00,
2013-06-29 13:23:00,82.0,67.0,-100.00,SSW,212,5.0,10.0,60,0.00,,,-99.99,711.000000,,2013-06-29 17:23:00,
2013-06-29 13:34:00,82.0,67.0,-100.00,SSW,212,5.0,10.0,60,0.00,,,-99.99,711.000000,,2013-06-29 17:34:00,
2013-06-29 13:42:00,82.0,67.0,-100.00,SSW,212,5.0,10.0,60,0.00,,,-99.99,711.000000,,2013-06-29 17:42:00,
2013-06-29 13:53:00,82.0,67.0,-100.00,SSW,212,5.0,10.0,60,0.00,,,-99.99,711.000000,,2013-06-29 17:53:00,
2013-06-29 14:02:00,82.0,67.0,-100.00,SSW,212,5.0,10.0,60,0.00,,,-99.99,711.000000,,2013-06-29 18:02:00,
2013-06-29 14:22:00,84.0,67.0,-100.00,SW,217,8.0,12.0,56,0.00,,,0.20,978.000000,,2013-06-29 18:22:00,
2013-06-29 14:34:00,84.0,67.0,-100.00,SW,217,8.0,12.0,56,0.00,,,0.20,978.000000,,2013-06-29 18:34:00,
2013-06-29 14:43:00,84.0,67.0,-100.00,SW,217,8.0,12.0,56,0.00,,,0.20,978.000000,,2013-06-29 18:43:00,
2013-06-29 14:53:00,84.0,67.0,-100.00,SW,217,8.0,12.0,56,0.00,,,0.20,978.000000,,2013-06-29 18:53:00,
2013-06-29 15:01:00,84.0,67.0,-100.00,SW,217,8.0,12.0,56,0.00,,,0.20,978.000000,,2013-06-29 19:01:00,
2013-06-29 15:22:00,85.0,64.0,-100.00,SSW,192,9.0,15.0,50,0.00,,,0.20,1041.000000,,2013-06-29 19:22:00,
2013-06-29 15:34:00,85.0,64.0,-100.00,SSW,192,9.0,15.0,50,0.00,,,0.20,1041.000000,,2013-06-29 19:34:00,
2013-06-29 15:43:00,85.0,64.0,-100.00,SSW,192,9.0,15.0,50,0.00,,,0.20,1041.000000,,2013-06-29 19:43:00,
2013-06-29 15:54:00,85.0,64.0,-100.00,SSW,192,9.0,15.0,50,0.00,,,0.20,1041.000000,,2013-06-29 19:54:00,
2013-06-29 16:02:00,85.0,64.0,-100.00,SSW,192,9.0,15.0,50,0.00,,,0.20,1041.000000,,2013-06-29 20:02:00,
2013-06-29 16:23:00,85.0,67.0,-100.00,South,189,8.0,14.0,55,0.00,,,0.20,949.000000,,2013-06-29 20:23:00,
2013-06-29 16:33:00,85.0,67.0,-100.00,South,189,8.0,14.0,55,0.00,,,0.20,949.000000,,2013-06-29 20:33:00,
2013-06-29 16:43:00,85.0,67.0,-100.00,South,189,8.0,14.0,55,0.00,,,0.20,949.000000,,2013-06-29 20:43:00,
2013-06-29 16:52:00,85.0,67.0,-100.00,South,189,8.0,14.0,55,0.00,,,0.20,949.000000,,2013-06-29 20:52:00,
2013-06-29 17:02:00,85.0,67.0,-100.00,South,189,8.0,14.0,55,0.00,,,0.20,949.000000,,2013-06-29 21:02:00,
2013-06-29 17:32:00,86.0,67.0,-100.00,SW,216,6.0,11.0,54,0.00,,,0.20,608.000000,,2013-06-29 21:32:00,
2013-06-29 17:42:00,86.0,67.0,-100.00,SW,216,6.0,11.0,54,0.00,,,0.20,608.000000,,2013-06-29 21:42:00,
2013-06-29 17:52:00,86.0,67.0,-100.00,SW,216,6.0,11.0,54,0.00,,,0.20,608.000000,,2013-06-29 21:52:00,
2013-06-29 18:01:00,86.0,67.0,-100.00,SW,216,6.0,11.0,54,0.00,,,0.20,608.000000,,2013-06-29 22:01:00,
2013-06-29 18:33:00,85.0,64.0,-100.00,SSW,209,7.0,12.0,50,0.00,,,0.20,627.000000,,2013-06-29 22:33:00,
2013-06-29 18:43:00,85.0,64.0,-100.00,SSW,209,7.0,12.0,50,0.00,,,0.20,627.000000,,2013-06-29 22:43:00,
2013-06-29 18:53:00,85.0,64.0,-100.00,SSW,209,7.0,12.0,50,0.00,,,0.20,627.000000,,2013-06-29 22:53:00,
2013-06-29 19:02:00,85.0,64.0,-100.00,SSW,209,7.0,12.0,50,0.00,,,0.20,627.000000,,2013-06-29 23:02:00,
2013-06-29 19:23:00,84.0,67.0,-100.00,SSW,194,6.0,10.0,56,0.00,,,0.20,405.000000,,2013-06-29 23:23:00,
2013-06-29 19:34:00,84.0,67.0,-100.00,SSW,194,6.0,10.0,56,0.00,,,0.20,405.000000,,2013-06-29 23:34:00,
2013-06-29 19:43:00,84.0,67.0,-100.00,SSW,194,6.0,10.0,56,0.00,,,0.20,405.000000,,2013-06-29 23:43:00,
2013-06-29 19:53:00,84.0,67.0,-100.00,SSW,194,6.0,10.0,56,0.00,,,0.20,405.000000,,2013-06-29 23:53:00,
2013-06-29 20:02:00,84.0,67.0,-100.00,SSW,194,6.0,10.0,56,0.00,,,0.20,405.000000,,2013-06-30 00:02:00,
2013-06-29 20:22:00,81.0,67.0,-100.00,South,171,4.0,10.0,62,0.00,,,0.20,186.000000,,2013-06-30 00:22:00,
2013-06-29 20:34:00,81.0,67.0,-100.00,South,171,4.0,10.0,62,0.00,,,0.20,186.000000,,2013-06-30 00:34:00,
2013-06-29 20:43:00,81.0,67.0,-100.00,South,171,4.0,10.0,62,0.00,,,0.20,186.000000,,2013-06-30 00:43:00,
2013-06-29 20:52:00,81.0,67.0,-100.00,South,171,4.0,10.0,62,0.00,,,0.20,186.000000,,2013-06-30 00:52:00,
2013-06-29 21:01:00,81.0,67.0,-100.00,South,171,4.0,10.0,62,0.00,,,0.20,186.000000,,2013-06-30 01:01:00,
2013-06-29 21:22:00,77.0,68.0,-100.00,South,172,6.0,8.0,73,0.00,,,0.16,16.000000,,2013-06-30 01:22:00,
2013-06-29 21:33:00,77.0,68.0,-100.00,South,172,6.0,8.0,73,0.00,,,0.16,16.000000,,2013-06-30 01:33:00,
2013-06-29 21:44:00,77.0,68.0,-100.00,South,172,6.0,8.0,73,0.00,,,0.16,16.000000,,2013-06-30 01:44:00,
2013-06-29 21:53:00,77.0,68.0,-100.00,South,172,6.0,8.0,73,0.00,,,0.16,16.000000,,2013-06-30 01:53:00,
2013-06-29 22:02:00,77.0,68.0,-100.00,South,172,6.0,8.0,73,0.00,,,0.16,16.000000,,2013-06-30 02:02:00,
2013-06-29 22:24:00,74.0,64.0,-100.00,SSW,200,4.0,12.0,71,0.00,,,0.00,0.000000,,2013-06-30 02:24:00,
2013-06-29 22:34:00,74.0,64.0,-100.00,SSW,200,4.0,12.0,71,0.00,,,0.00,0.000000,,2013-06-30 02:34:00,
2013-06-29 22:43:00,74.0,64.0,-100.00,SSW,200,4.0,12.0,71,0.00,,,0.00,0.000000,,2013-06-30 02:43:00,
2013-06-29 22:53:00,74.0,64.0,-100.00,SSW,200,4.0,12.0,71,0.00,,,0.00,0.000000,,2013-06-30 02:53:00,
2013-06-29 23:01:00,74.0,64.0,-100.00,SSW,200,4.0,12.0,71,0.00,,,0.00,0.000000,,2013-06-30 03:01:00,
2013-06-29 23:23:00,72.0,64.0,-100.00,SSW,194,3.0,9.0,76,0.00,,,0.00,0.000000,,2013-06-30 03:23:00,
2013-06-29 23:34:00,72.0,64.0,-100.00,SSW,194,3.0,9.0,76,0.00,,,0.00,0.000000,,2013-06-30 03:34:00,
2013-06-29 23:43:00,72.0,64.0,-100.00,SSW,194,3.0,9.0,76,0.00,,,0.00,0.000000,,2013-06-30 03:43:00,
2013-06-29 23:53:00,72.0,64.0,-100.00,SSW,194,3.0,9.0,76,0.00,,,0.00,0.000000,,2013-06-30 03:53:00,